createdAt,value
2018-05-25T00:01:00.156Z,24.6
2018-05-25T00:02:04.320Z,24.6
2018-05-25T00:03:08.685Z,24.6
2018-05-25T00:04:13.960Z,24.6
2018-05-25T00:05:19.324Z,24.6
2018-05-25T00:06:23.490Z,24.6
2018-05-25T00:07:27.827Z,24.6
2018-05-25T00:08:32.175Z,24.5
2018-05-25T00:09:39.649Z,24.6
2018-05-25T00:10:43.983Z,24.5
2018-05-25T00:11:48.350Z,24.6
2018-05-25T00:12:53.711Z,24.5
2018-05-25T00:13:59.185Z,24.5
2018-05-25T00:15:03.743Z,24.5
2018-05-25T00:16:09.075Z,24.5
2018-05-25T00:17:13.538Z,24.5
2018-05-25T00:18:18.902Z,24.5
2018-05-25T00:19:24.362Z,24.5
2018-05-25T00:20:28.705Z,24.5
2018-05-25T00:21:34.197Z,24.5
2018-05-25T00:22:39.536Z,24.5
2018-05-25T00:23:43.881Z,24.5
2018-05-25T00:24:51.393Z,24.5
2018-05-25T00:25:56.809Z,24.5
2018-05-25T00:27:01.084Z,24.5
2018-05-25T00:28:05.341Z,24.5
2018-05-25T00:29:10.715Z,24.5
2018-05-25T00:30:16.082Z,24.5
2018-05-25T00:31:20.442Z,24.5
2018-05-25T00:32:25.710Z,24.5
2018-05-25T00:33:30.975Z,24.5
2018-05-25T00:34:36.234Z,24.5
2018-05-25T00:35:40.597Z,24.5
2018-05-25T00:36:44.959Z,24.5
2018-05-25T00:37:50.318Z,24.5
2018-05-25T00:38:54.686Z,24.4
2018-05-25T00:39:59.142Z,24.5
2018-05-25T00:41:04.497Z,24.5
2018-05-25T00:42:08.837Z,24.5
2018-05-25T00:43:13.301Z,24.4
2018-05-25T00:44:18.649Z,24.4
2018-05-25T00:45:23.114Z,24.4
2018-05-25T00:46:27.472Z,24.4
2018-05-25T00:47:32.810Z,24.4
2018-05-25T00:48:37.150Z,24.4
2018-05-25T00:49:41.606Z,24.4
2018-05-25T00:50:46.871Z,24.4
2018-05-25T00:51:51.438Z,24.4
2018-05-25T00:52:55.803Z,24.4
2018-05-25T00:54:01.167Z,24.3
2018-05-25T00:55:05.625Z,24.4
2018-05-25T00:56:09.992Z,24.4
2018-05-25T00:57:15.327Z,24.4
2018-05-25T00:58:19.699Z,24.4
2018-05-25T00:59:24.160Z,24.3
2018-05-25T01:00:29.615Z,24.4
2018-05-25T01:01:33.954Z,24.3
2018-05-25T01:02:38.419Z,24.3
2018-05-25T01:03:43.696Z,24.3
2018-05-25T01:04:48.061Z,24.3
2018-05-25T01:05:52.321Z,24.3
2018-05-25T01:06:57.689Z,24.3
2018-05-25T01:08:03.157Z,24.3
2018-05-25T01:09:07.505Z,24.3
2018-05-25T01:10:15.978Z,24.3
2018-05-25T01:11:21.444Z,24.3
2018-05-25T01:12:25.909Z,24.3
2018-05-25T01:13:31.249Z,24.3
2018-05-25T01:14:36.587Z,24.3
2018-05-25T01:15:40.927Z,24.3
2018-05-25T01:16:46.291Z,24.3
2018-05-25T01:17:51.612Z,24.3
2018-05-25T01:18:55.881Z,24.3
2018-05-25T01:20:00.243Z,24.3
2018-05-25T01:21:05.506Z,24.3
2018-05-25T01:22:10.771Z,24.3
2018-05-25T01:23:16.104Z,24.2
2018-05-25T01:24:20.455Z,24.3
2018-05-25T01:25:25.812Z,24.2
2018-05-25T01:26:31.143Z,24.2
2018-05-25T01:27:35.607Z,24.2
2018-05-25T01:28:40.880Z,24.2
2018-05-25T01:29:46.220Z,24.2
2018-05-25T01:30:51.553Z,24.2
2018-05-25T01:31:56.020Z,24.2
2018-05-25T01:33:01.287Z,24.2
2018-05-25T01:34:06.663Z,24.2
2018-05-25T01:35:11.021Z,24.2
2018-05-25T01:36:15.283Z,24.2
2018-05-25T01:37:20.645Z,24.2
2018-05-25T01:38:26.108Z,24.2
2018-05-25T01:39:30.438Z,24.2
2018-05-25T01:40:36.901Z,24.2
2018-05-25T01:41:42.369Z,24.1
2018-05-25T01:42:46.737Z,24.1
2018-05-25T01:43:52.012Z,24.1
2018-05-25T01:44:57.354Z,24.2
2018-05-25T01:46:01.809Z,24.1
2018-05-25T01:47:07.075Z,24.1
2018-05-25T01:48:12.435Z,24.1
2018-05-25T01:49:16.606Z,24.1
2018-05-25T01:50:20.969Z,24.1
2018-05-25T01:51:28.326Z,24.1
2018-05-25T01:52:33.607Z,24.1
2018-05-25T01:53:38.871Z,24.1
2018-05-25T01:54:43.140Z,24.1
2018-05-25T01:55:47.406Z,24.1
2018-05-25T01:56:52.670Z,24.1
2018-05-25T01:57:57.940Z,24.1
2018-05-25T01:59:03.208Z,24.1
2018-05-25T02:00:07.466Z,24.1
2018-05-25T02:01:11.729Z,24.1
2018-05-25T02:02:16.992Z,24.1
2018-05-25T02:03:22.165Z,24.1
2018-05-25T02:04:27.429Z,24.1
2018-05-25T02:05:31.586Z,24.1
2018-05-25T02:06:38.850Z,24.1
2018-05-25T02:07:43.223Z,24.1
2018-05-25T02:08:48.498Z,24.1
2018-05-25T02:09:53.757Z,24.1
2018-05-25T02:11:01.021Z,24.1
2018-05-25T02:12:05.285Z,24
2018-05-25T02:13:09.548Z,24
2018-05-25T02:14:14.818Z,24
2018-05-25T02:15:20.081Z,24
2018-05-25T02:16:25.437Z,24
2018-05-25T02:17:29.700Z,24
2018-05-25T02:18:36.969Z,24
2018-05-25T02:19:42.235Z,24
2018-05-25T02:20:47.593Z,24
2018-05-25T02:21:51.878Z,24
2018-05-25T02:22:56.143Z,24
2018-05-25T02:24:01.305Z,24
2018-05-25T02:25:06.560Z,24
2018-05-25T02:26:11.814Z,24
2018-05-25T02:27:16.076Z,24
2018-05-25T02:28:20.338Z,24
2018-05-25T02:29:24.806Z,24
2018-05-25T02:30:30.165Z,23.9
2018-05-25T02:31:34.424Z,23.9
2018-05-25T02:32:38.891Z,23.9
2018-05-25T02:33:44.364Z,23.9
2018-05-25T02:34:48.634Z,24
2018-05-25T02:35:52.973Z,23.9
2018-05-25T02:36:58.321Z,23.9
2018-05-25T02:38:03.617Z,23.9
2018-05-25T02:39:07.886Z,23.9
2018-05-25T02:40:12.251Z,23.9
2018-05-25T02:41:17.507Z,23.9
2018-05-25T02:42:22.869Z,23.9
2018-05-25T02:43:27.039Z,23.9
2018-05-25T02:44:31.297Z,23.9
2018-05-25T02:45:36.659Z,23.9
2018-05-25T02:46:41.918Z,23.9
2018-05-25T02:47:46.180Z,23.9
2018-05-25T02:48:50.348Z,23.9
2018-05-25T02:49:54.714Z,23.9
2018-05-25T02:51:00.071Z,23.9
2018-05-25T02:52:04.335Z,23.9
2018-05-25T02:53:08.601Z,23.9
2018-05-25T02:54:12.969Z,23.9
2018-05-25T02:55:18.230Z,23.9
2018-05-25T02:56:23.484Z,23.9
2018-05-25T02:57:27.846Z,23.9
2018-05-25T02:58:32.122Z,23.9
2018-05-25T02:59:37.389Z,23.8
2018-05-25T03:00:42.725Z,23.9
2018-05-25T03:01:47.060Z,23.8
2018-05-25T03:02:51.400Z,23.8
2018-05-25T03:03:56.781Z,23.8
2018-05-25T03:05:01.120Z,23.8
2018-05-25T03:06:05.468Z,23.8
2018-05-25T03:07:10.749Z,23.8
2018-05-25T03:08:16.208Z,23.8
2018-05-25T03:09:20.677Z,23.8
2018-05-25T03:10:25.946Z,23.8
2018-05-25T03:11:34.116Z,23.8
2018-05-25T03:12:39.475Z,23.8
2018-05-25T03:13:43.750Z,23.8
2018-05-25T03:14:48.213Z,23.8
2018-05-25T03:15:53.551Z,23.8
2018-05-25T03:16:57.950Z,23.8
2018-05-25T03:18:02.282Z,23.8
2018-05-25T03:19:07.750Z,23.8
2018-05-25T03:20:12.142Z,23.8
2018-05-25T03:21:19.531Z,23.8
2018-05-25T03:22:24.921Z,23.8
2018-05-25T03:23:29.241Z,23.8
2018-05-25T03:24:33.700Z,23.8
2018-05-25T03:25:39.036Z,23.8
2018-05-25T03:26:44.371Z,23.8
2018-05-25T03:27:48.708Z,23.8
2018-05-25T03:28:54.078Z,23.8
2018-05-25T03:29:59.338Z,23.7
2018-05-25T03:31:03.604Z,23.7
2018-05-25T03:32:07.973Z,23.7
2018-05-25T03:33:13.239Z,23.8
2018-05-25T03:34:18.605Z,23.7
2018-05-25T03:35:22.979Z,23.7
2018-05-25T03:36:27.240Z,23.8
2018-05-25T03:37:32.464Z,23.8
2018-05-25T03:38:57.076Z,23.7
2018-05-25T03:40:02.433Z,23.7
2018-05-25T03:41:06.891Z,23.7
2018-05-25T03:42:11.054Z,23.7
2018-05-25T03:43:16.313Z,23.7
2018-05-25T03:44:21.586Z,23.7
2018-05-25T03:45:26.947Z,23.7
2018-05-25T03:46:31.204Z,23.7
2018-05-25T03:47:35.466Z,23.7
2018-05-25T03:48:40.842Z,23.7
2018-05-25T03:49:46.004Z,23.7
2018-05-25T03:50:50.368Z,23.7
2018-05-25T03:51:54.628Z,23.7
2018-05-25T03:52:59.891Z,23.7
2018-05-25T03:54:05.162Z,23.7
2018-05-25T03:55:10.525Z,23.7
2018-05-25T03:56:14.785Z,23.7
2018-05-25T03:57:19.149Z,23.7
2018-05-25T03:58:24.410Z,23.7
2018-05-25T03:59:29.689Z,23.7
2018-05-25T04:00:33.945Z,23.7
2018-05-25T04:01:38.265Z,23.7
2018-05-25T04:02:43.630Z,23.7
2018-05-25T04:03:48.998Z,23.7
2018-05-25T04:04:53.265Z,23.7
2018-05-25T04:05:57.423Z,23.7
2018-05-25T04:07:02.790Z,23.7
2018-05-25T04:08:08.156Z,23.7
2018-05-25T04:09:12.535Z,23.7
2018-05-25T04:10:17.896Z,23.6
2018-05-25T04:11:23.155Z,23.7
2018-05-25T04:12:28.418Z,23.6
2018-05-25T04:13:32.685Z,23.7
2018-05-25T04:14:37.144Z,23.6
2018-05-25T04:15:42.475Z,23.7
2018-05-25T04:16:46.812Z,23.7
2018-05-25T04:17:51.142Z,23.7
2018-05-25T04:18:56.510Z,23.6
2018-05-25T04:20:01.857Z,23.6
2018-05-25T04:21:06.193Z,23.6
2018-05-25T04:22:10.454Z,23.6
2018-05-25T04:23:15.917Z,23.6
2018-05-25T04:24:20.285Z,23.6
2018-05-25T04:25:24.544Z,23.6
2018-05-25T04:26:29.807Z,23.6
2018-05-25T04:27:35.161Z,23.6
2018-05-25T04:28:39.526Z,23.6
2018-05-25T04:29:43.790Z,23.6
2018-05-25T04:30:48.978Z,23.6
2018-05-25T04:31:54.237Z,23.6
2018-05-25T04:32:59.576Z,23.6
2018-05-25T04:34:03.945Z,23.6
2018-05-25T04:35:09.287Z,23.6
2018-05-25T04:36:14.703Z,23.6
2018-05-25T04:37:23.061Z,23.6
2018-05-25T04:38:27.411Z,23.6
2018-05-25T04:39:35.878Z,23.6
2018-05-25T04:40:40.446Z,23.6
2018-05-25T04:41:44.712Z,23.6
2018-05-25T04:42:50.071Z,23.6
2018-05-25T04:43:55.439Z,23.6
2018-05-25T04:44:59.809Z,23.6
2018-05-25T04:46:05.063Z,23.6
2018-05-25T04:47:13.325Z,23.6
2018-05-25T04:48:18.683Z,23.6
2018-05-25T04:49:23.055Z,23.6
2018-05-25T04:50:27.412Z,23.6
2018-05-25T04:51:32.757Z,23.6
2018-05-25T04:52:37.092Z,23.6
2018-05-25T04:53:41.467Z,23.5
2018-05-25T04:54:46.804Z,23.6
2018-05-25T04:55:52.265Z,23.6
2018-05-25T04:56:56.598Z,23.6
2018-05-25T04:58:02.069Z,23.6
2018-05-25T04:59:07.244Z,23.6
2018-05-25T05:00:11.506Z,23.6
2018-05-25T05:01:15.767Z,23.6
2018-05-25T05:02:21.031Z,23.6
2018-05-25T05:03:26.298Z,23.6
2018-05-25T05:04:31.670Z,23.5
2018-05-25T05:05:35.959Z,23.6
2018-05-25T05:06:40.319Z,23.5
2018-05-25T05:07:45.677Z,23.6
2018-05-25T05:08:49.956Z,23.5
2018-05-25T05:09:57.118Z,23.5
2018-05-25T05:11:01.383Z,23.6
2018-05-25T05:12:06.750Z,23.5
2018-05-25T05:13:12.018Z,23.5
2018-05-25T05:14:16.400Z,23.5
2018-05-25T05:15:23.563Z,23.5
2018-05-25T05:16:27.823Z,23.5
2018-05-25T05:17:33.191Z,23.5
2018-05-25T05:18:38.559Z,23.5
2018-05-25T05:19:42.826Z,23.5
2018-05-25T05:20:47.088Z,23.5
2018-05-25T05:21:52.547Z,23.5
2018-05-25T05:22:56.944Z,23.5
2018-05-25T05:24:01.323Z,23.5
2018-05-25T05:25:06.685Z,23.5
2018-05-25T05:26:10.949Z,23.5
2018-05-25T05:27:15.311Z,23.5
2018-05-25T05:28:20.478Z,23.5
2018-05-25T05:29:25.850Z,23.5
2018-05-25T05:30:31.108Z,23.5
2018-05-25T05:31:35.365Z,23.5
2018-05-25T05:32:39.626Z,23.5
2018-05-25T05:33:45.094Z,23.5
2018-05-25T05:34:50.361Z,23.5
2018-05-25T05:35:54.634Z,23.5
2018-05-25T05:36:58.796Z,23.5
2018-05-25T05:38:04.155Z,23.5
2018-05-25T05:39:09.326Z,23.5
2018-05-25T05:40:16.699Z,23.5
2018-05-25T05:41:21.059Z,23.5
2018-05-25T05:42:25.420Z,23.4
2018-05-25T05:43:30.682Z,23.4
2018-05-25T05:44:35.941Z,23.4
2018-05-25T05:45:40.209Z,23.5
2018-05-25T05:46:44.472Z,23.5
2018-05-25T05:47:49.832Z,23.4
2018-05-25T05:48:55.110Z,23.4
2018-05-25T05:49:59.379Z,23.5
2018-05-25T05:51:03.744Z,23.5
2018-05-25T05:52:09.107Z,23.5
2018-05-25T05:53:14.396Z,23.5
2018-05-25T05:54:18.664Z,23.5
2018-05-25T05:55:22.933Z,23.5
2018-05-25T05:56:28.298Z,23.5
2018-05-25T05:57:33.562Z,23.5
2018-05-25T05:58:37.906Z,23.4
2018-05-25T05:59:42.368Z,23.4
2018-05-25T06:00:47.828Z,23.5
2018-05-25T06:01:52.163Z,23.5
2018-05-25T06:02:56.502Z,23.5
2018-05-25T06:04:01.851Z,23.5
2018-05-25T06:05:07.311Z,23.5
2018-05-25T06:06:11.777Z,23.5
2018-05-25T06:07:17.118Z,23.5
2018-05-25T06:08:21.582Z,23.5
2018-05-25T06:09:26.048Z,23.5
2018-05-25T06:10:31.383Z,23.5
2018-05-25T06:11:35.741Z,23.5
2018-05-25T06:12:40.096Z,23.5
2018-05-25T06:13:45.367Z,23.5
2018-05-25T06:14:50.629Z,23.6
2018-05-25T06:15:54.995Z,23.5
2018-05-25T06:16:59.263Z,23.6
2018-05-25T06:18:04.527Z,23.5
2018-05-25T06:19:09.794Z,23.6
2018-05-25T06:20:13.960Z,23.5
2018-05-25T06:21:18.227Z,23.6
2018-05-25T06:22:22.512Z,23.6
2018-05-25T06:23:27.781Z,23.6
2018-05-25T06:24:33.123Z,23.6
2018-05-25T06:25:37.457Z,23.6
2018-05-25T06:26:41.790Z,23.6
2018-05-25T06:27:47.127Z,23.6
2018-05-25T06:28:52.504Z,23.6
2018-05-25T06:29:56.779Z,23.6
2018-05-25T06:31:02.110Z,23.6
2018-05-25T06:32:07.444Z,23.6
2018-05-25T06:33:11.788Z,23.6
2018-05-25T06:34:16.137Z,23.6
2018-05-25T06:35:21.470Z,23.6
2018-05-25T06:36:26.830Z,23.6
2018-05-25T06:37:31.293Z,23.6
2018-05-25T06:38:36.665Z,23.6
2018-05-25T06:39:41.153Z,23.7
2018-05-25T06:40:49.515Z,23.7
2018-05-25T06:41:54.899Z,23.7
2018-05-25T06:43:00.162Z,23.7
2018-05-25T06:44:04.433Z,23.7
2018-05-25T06:45:08.797Z,23.7
2018-05-25T06:46:14.060Z,23.7
2018-05-25T06:47:19.321Z,23.7
2018-05-25T06:48:24.590Z,23.7
2018-05-25T06:49:28.962Z,23.7
2018-05-25T06:50:33.330Z,23.7
2018-05-25T06:51:38.598Z,23.7
2018-05-25T06:52:43.756Z,23.7
2018-05-25T06:53:48.033Z,23.7
2018-05-25T06:54:52.392Z,23.8
2018-05-25T06:55:57.658Z,23.7
2018-05-25T06:57:02.920Z,23.8
2018-05-25T06:58:08.182Z,23.8
2018-05-25T06:59:12.448Z,23.9
2018-05-25T07:00:16.709Z,23.9
2018-05-25T07:01:21.975Z,23.9
2018-05-25T07:02:27.243Z,23.9
2018-05-25T07:03:31.513Z,24
2018-05-25T07:04:35.781Z,24
2018-05-25T07:05:40.147Z,24.1
2018-05-25T07:06:45.414Z,24.1
2018-05-25T07:07:50.675Z,24.1
2018-05-25T07:08:54.953Z,24.1
2018-05-25T07:09:59.316Z,24.2
2018-05-25T07:11:04.678Z,24.2
2018-05-25T07:12:08.935Z,24.2
2018-05-25T07:13:13.203Z,24.3
2018-05-25T07:14:17.577Z,24.3
2018-05-25T07:15:22.934Z,24.3
2018-05-25T07:16:27.253Z,24.3
2018-05-25T07:17:31.516Z,24.3
2018-05-25T07:18:36.878Z,24.4
2018-05-25T07:19:42.239Z,24.4
2018-05-25T07:20:46.595Z,24.4
2018-05-25T07:21:50.856Z,24.4
2018-05-25T07:22:56.226Z,24.4
2018-05-25T07:24:01.594Z,24.4
2018-05-25T07:25:05.855Z,24.4
2018-05-25T07:26:10.217Z,24.4
2018-05-25T07:27:15.488Z,24.5
2018-05-25T07:28:20.744Z,24.5
2018-05-25T07:29:25.031Z,24.5
2018-05-25T07:30:29.398Z,24.5
2018-05-25T07:31:34.730Z,24.5
2018-05-25T07:32:39.289Z,24.5
2018-05-25T07:33:44.755Z,24.6
2018-05-25T07:34:50.089Z,24.6
2018-05-25T07:35:54.547Z,24.6
2018-05-25T07:37:00.005Z,24.6
2018-05-25T07:38:05.344Z,24.7
2018-05-25T07:39:09.813Z,24.7
2018-05-25T07:40:15.177Z,24.7
2018-05-25T07:41:22.644Z,24.7
2018-05-25T07:42:27.214Z,24.7
2018-05-25T07:43:32.673Z,24.7
2018-05-25T07:44:37.059Z,24.7
2018-05-25T07:45:41.394Z,24.7
2018-05-25T07:46:46.858Z,24.7
2018-05-25T07:47:51.229Z,24.7
2018-05-25T07:48:56.509Z,24.7
2018-05-25T07:50:01.777Z,24.7
2018-05-25T07:51:07.141Z,24.7
2018-05-25T07:52:11.405Z,24.7
2018-05-25T07:53:15.665Z,24.7
2018-05-25T07:54:21.047Z,24.7
2018-05-25T07:55:26.426Z,24.7
2018-05-25T07:56:30.683Z,24.7
2018-05-25T07:57:35.024Z,24.7
2018-05-25T07:58:40.381Z,24.7
2018-05-25T07:59:44.843Z,24.7
2018-05-25T08:00:49.310Z,24.7
2018-05-25T08:01:54.647Z,24.7
2018-05-25T08:02:59.009Z,24.7
2018-05-25T08:04:03.355Z,24.7
2018-05-25T08:05:08.726Z,24.7
2018-05-25T08:06:13.086Z,24.7
2018-05-25T08:07:17.350Z,24.7
2018-05-25T08:08:22.644Z,24.7
2018-05-25T08:09:27.911Z,24.7
2018-05-25T08:10:33.173Z,24.7
2018-05-25T08:11:37.431Z,24.7
2018-05-25T08:12:41.797Z,24.7
2018-05-25T08:13:47.139Z,24.7
2018-05-25T08:14:52.603Z,24.7
2018-05-25T08:15:56.988Z,24.7
2018-05-25T08:17:02.331Z,24.7
2018-05-25T08:18:07.696Z,24.7
2018-05-25T08:19:12.068Z,24.7
2018-05-25T08:20:17.406Z,24.7
2018-05-25T08:21:22.748Z,24.7
2018-05-25T08:22:27.090Z,24.7
2018-05-25T08:23:31.571Z,24.7
2018-05-25T08:24:36.913Z,24.7
2018-05-25T08:25:41.278Z,24.7
2018-05-25T08:26:45.617Z,24.7
2018-05-25T08:27:51.088Z,24.7
2018-05-25T08:28:55.433Z,24.7
2018-05-25T08:30:00.006Z,24.7
2018-05-25T08:31:05.341Z,24.7
2018-05-25T08:32:09.686Z,24.7
2018-05-25T08:33:17.019Z,24.7
2018-05-25T08:34:22.290Z,24.7
2018-05-25T08:35:27.625Z,24.7
2018-05-25T08:36:32.194Z,24.8
2018-05-25T08:37:37.660Z,24.7
2018-05-25T08:38:41.932Z,24.7
2018-05-25T08:39:46.191Z,24.8
2018-05-25T08:40:50.451Z,24.7
2018-05-25T08:41:58.819Z,24.7
2018-05-25T08:43:04.228Z,24.7
2018-05-25T08:44:08.500Z,24.8
2018-05-25T08:45:12.858Z,24.8
2018-05-25T08:46:18.117Z,24.8
2018-05-25T08:47:23.482Z,24.8
2018-05-25T08:48:27.747Z,24.8
2018-05-25T08:49:32.152Z,24.8
2018-05-25T08:50:37.425Z,24.8
2018-05-25T08:51:41.884Z,24.8
2018-05-25T08:52:46.342Z,24.8
2018-05-25T08:53:51.741Z,24.8
2018-05-25T08:54:56.134Z,24.8
2018-05-25T08:56:15.844Z,24.8
2018-05-25T08:57:21.208Z,24.8
2018-05-25T08:58:26.567Z,24.8
2018-05-25T08:59:30.932Z,24.8
2018-05-25T09:00:36.191Z,24.8
2018-05-25T09:01:41.554Z,24.8
2018-05-25T09:02:45.822Z,24.8
2018-05-25T09:03:50.205Z,24.8
2018-05-25T09:04:55.469Z,24.8
2018-05-25T09:06:00.727Z,24.8
2018-05-25T09:07:06.084Z,24.8
2018-05-25T09:08:10.346Z,24.8
2018-05-25T09:09:15.711Z,24.8
2018-05-25T09:10:21.325Z,24.8
2018-05-25T09:11:25.488Z,24.8
2018-05-25T09:12:29.753Z,24.8
2018-05-25T09:13:34.914Z,24.9
2018-05-25T09:14:40.385Z,24.8
2018-05-25T09:15:44.723Z,24.8
2018-05-25T09:16:52.112Z,24.8
2018-05-25T09:17:57.443Z,24.9
2018-05-25T09:19:02.917Z,24.8
2018-05-25T09:20:07.395Z,24.8
2018-05-25T09:21:12.726Z,24.9
2018-05-25T09:22:17.085Z,24.8
2018-05-25T09:23:21.454Z,24.8
2018-05-25T09:24:26.730Z,24.9
2018-05-25T09:25:32.092Z,24.8
2018-05-25T09:26:36.464Z,24.9
2018-05-25T09:27:41.728Z,24.8
2018-05-25T09:28:47.106Z,24.9
2018-05-25T09:29:52.372Z,24.8
2018-05-25T09:30:56.654Z,24.9
2018-05-25T09:32:01.076Z,24.9
2018-05-25T09:33:06.438Z,24.9
2018-05-25T09:34:10.722Z,24.8
2018-05-25T09:35:15.046Z,24.9
2018-05-25T09:36:20.420Z,24.9
2018-05-25T09:37:25.714Z,24.9
2018-05-25T09:38:29.875Z,24.9
2018-05-25T09:39:34.150Z,24.9
2018-05-25T09:40:38.413Z,24.9
2018-05-25T09:41:43.675Z,24.9
2018-05-25T09:42:48.940Z,24.9
2018-05-25T09:43:53.310Z,24.9
2018-05-25T09:44:57.578Z,24.9
2018-05-25T09:46:02.838Z,24.9
2018-05-25T09:47:07.140Z,24.9
2018-05-25T09:48:11.398Z,24.9
2018-05-25T09:49:15.676Z,24.9
2018-05-25T09:50:20.935Z,24.9
2018-05-25T09:51:26.309Z,24.9
2018-05-25T09:52:30.685Z,24.9
2018-05-25T09:53:35.060Z,24.9
2018-05-25T09:54:40.536Z,24.9
2018-05-25T09:55:44.995Z,24.9
2018-05-25T09:56:53.362Z,24.9
2018-05-25T09:57:58.726Z,24.9
2018-05-25T09:59:03.127Z,24.9
2018-05-25T10:00:07.591Z,24.9
2018-05-25T10:01:13.054Z,24.9
2018-05-25T10:02:17.393Z,24.9
2018-05-25T10:03:21.859Z,24.9
2018-05-25T10:04:27.128Z,24.9
2018-05-25T10:05:31.465Z,24.9
2018-05-25T10:06:35.808Z,24.9
2018-05-25T10:07:41.078Z,24.9
2018-05-25T10:08:46.429Z,24.9
2018-05-25T10:09:50.887Z,24.9
2018-05-25T10:10:56.347Z,24.9
2018-05-25T10:12:01.715Z,24.9
2018-05-25T10:13:06.181Z,24.9
2018-05-25T10:14:11.538Z,24.9
2018-05-25T10:15:16.907Z,24.9
2018-05-25T10:16:21.246Z,25
2018-05-25T10:17:25.705Z,25
2018-05-25T10:18:31.172Z,24.9
2018-05-25T10:19:35.535Z,24.9
2018-05-25T10:20:40.897Z,25
2018-05-25T10:21:46.231Z,25
2018-05-25T10:22:50.571Z,24.9
2018-05-25T10:23:54.924Z,25
2018-05-25T10:25:00.401Z,25
2018-05-25T10:26:04.671Z,25
2018-05-25T10:27:09.032Z,24.9
2018-05-25T10:28:14.296Z,25
2018-05-25T10:29:19.575Z,25
2018-05-25T10:30:23.945Z,24.9
2018-05-25T10:31:28.306Z,25
2018-05-25T10:32:33.680Z,25
2018-05-25T10:33:37.947Z,25
2018-05-25T10:34:42.219Z,25
2018-05-25T10:35:46.489Z,24.9
2018-05-25T10:36:51.848Z,24.9
2018-05-25T10:37:57.210Z,25
2018-05-25T10:39:01.575Z,25
2018-05-25T10:40:06.838Z,25
2018-05-25T10:41:12.203Z,25
2018-05-25T10:42:16.420Z,25
2018-05-25T10:43:20.683Z,25
2018-05-25T10:44:25.049Z,25
2018-05-25T10:45:30.307Z,25
2018-05-25T10:46:35.563Z,25
2018-05-25T10:47:39.827Z,25
2018-05-25T10:48:44.242Z,25
2018-05-25T10:49:49.573Z,25
2018-05-25T10:50:53.912Z,25
2018-05-25T10:51:58.478Z,25
2018-05-25T10:53:03.944Z,25
2018-05-25T10:54:08.420Z,25
2018-05-25T10:55:13.765Z,25
2018-05-25T10:56:19.156Z,25
2018-05-25T10:57:27.501Z,25
2018-05-25T10:58:31.839Z,25
2018-05-25T10:59:37.190Z,25
2018-05-25T11:00:41.755Z,24.9
2018-05-25T11:01:46.095Z,25
2018-05-25T11:02:51.561Z,25
2018-05-25T11:03:55.910Z,25
2018-05-25T11:05:00.371Z,25
2018-05-25T11:06:05.716Z,25
2018-05-25T11:07:09.976Z,25
2018-05-25T11:08:14.343Z,25
2018-05-25T11:09:19.687Z,25
2018-05-25T11:10:25.154Z,25
2018-05-25T11:11:29.487Z,25
2018-05-25T11:12:34.848Z,25
2018-05-25T11:13:40.113Z,25
2018-05-25T11:14:44.371Z,25
2018-05-25T11:15:48.626Z,25
2018-05-25T11:16:53.887Z,25
2018-05-25T11:17:59.241Z,25
2018-05-25T11:19:03.509Z,25
2018-05-25T11:20:07.875Z,25
2018-05-25T11:21:13.330Z,25
2018-05-25T11:22:18.693Z,25
2018-05-25T11:23:23.257Z,25
2018-05-25T11:24:28.730Z,25
2018-05-25T11:25:33.075Z,25
2018-05-25T11:26:37.347Z,25
2018-05-25T11:27:42.803Z,25
2018-05-25T11:28:47.278Z,25
2018-05-25T11:29:51.611Z,25
2018-05-25T11:30:56.101Z,25
2018-05-25T11:32:00.460Z,25
2018-05-25T11:33:05.916Z,25
2018-05-25T11:34:11.387Z,25
2018-05-25T11:35:15.854Z,25
2018-05-25T11:36:21.315Z,25
2018-05-25T11:37:29.779Z,25
2018-05-25T11:38:34.249Z,25
2018-05-25T11:39:39.615Z,25
2018-05-25T11:40:46.981Z,25
2018-05-25T11:41:51.243Z,25
2018-05-25T11:42:56.604Z,25
2018-05-25T11:44:01.872Z,25
2018-05-25T11:45:09.240Z,25
2018-05-25T11:46:13.504Z,25
2018-05-25T11:47:18.780Z,25
2018-05-25T11:48:24.042Z,25
2018-05-25T11:49:29.307Z,25
2018-05-25T11:50:33.578Z,25
2018-05-25T11:51:37.838Z,25
2018-05-25T11:52:43.124Z,25
2018-05-25T11:53:48.408Z,25
2018-05-25T11:54:53.796Z,25
2018-05-25T11:55:58.163Z,25
2018-05-25T11:57:03.427Z,25
2018-05-25T11:58:10.800Z,25
2018-05-25T11:59:16.068Z,25
2018-05-25T12:00:20.336Z,25
2018-05-25T12:01:24.601Z,25
2018-05-25T12:02:29.864Z,25
2018-05-25T12:03:35.031Z,25
2018-05-25T12:04:40.304Z,25
2018-05-25T12:05:44.596Z,25.1
2018-05-25T12:06:48.961Z,25.1
2018-05-25T12:07:54.238Z,25.1
2018-05-25T12:09:02.609Z,25.1
2018-05-25T12:10:06.974Z,25.1
2018-05-25T12:11:11.236Z,25.1
2018-05-25T12:12:16.594Z,25.1
2018-05-25T12:13:21.852Z,25.1
2018-05-25T12:14:26.115Z,25.2
2018-05-25T12:15:30.475Z,25.2
2018-05-25T12:16:35.733Z,25.2
2018-05-25T12:17:41.000Z,25.2
2018-05-25T12:18:46.168Z,25.2
2018-05-25T12:19:50.531Z,25.3
2018-05-25T12:20:54.892Z,25.2
2018-05-25T12:22:00.258Z,25.3
2018-05-25T12:23:04.524Z,25.3
2018-05-25T12:24:08.891Z,25.3
2018-05-25T12:25:14.159Z,25.3
2018-05-25T12:26:19.423Z,25.3
2018-05-25T12:27:24.683Z,25.3
2018-05-25T12:28:29.048Z,25.3
2018-05-25T12:29:33.316Z,25.3
2018-05-25T12:30:38.584Z,25.3
2018-05-25T12:31:43.750Z,25.4
2018-05-25T12:32:49.016Z,25.4
2018-05-25T12:33:53.283Z,25.4
2018-05-25T12:34:57.548Z,25.4
2018-05-25T12:36:02.829Z,25.4
2018-05-25T12:37:08.193Z,25.5
2018-05-25T12:38:12.547Z,25.5
2018-05-25T12:39:16.917Z,25.4
2018-05-25T12:40:22.178Z,25.5
2018-05-25T12:41:27.640Z,25.5
2018-05-25T12:42:32.007Z,25.5
2018-05-25T12:43:37.261Z,25.5
2018-05-25T12:44:42.623Z,25.5
2018-05-25T12:45:46.935Z,25.5
2018-05-25T12:46:51.193Z,25.5
2018-05-25T12:47:56.452Z,25.5
2018-05-25T12:49:01.718Z,25.5
2018-05-25T12:50:07.078Z,25.5
2018-05-25T12:51:11.445Z,25.5
2018-05-25T12:52:16.801Z,25.5
2018-05-25T12:53:22.059Z,25.6
2018-05-25T12:54:26.341Z,25.5
2018-05-25T12:55:30.703Z,25.5
2018-05-25T12:56:35.865Z,25.5
2018-05-25T12:57:41.126Z,25.5
2018-05-25T12:58:48.493Z,25.6
2018-05-25T12:59:52.759Z,25.5
2018-05-25T13:00:57.133Z,25.5
2018-05-25T13:02:02.226Z,25.6
2018-05-25T13:03:07.585Z,25.6
2018-05-25T13:04:12.864Z,25.6
2018-05-25T13:05:17.277Z,25.6
2018-05-25T13:06:21.623Z,25.6
2018-05-25T13:07:26.968Z,25.6
2018-05-25T13:08:32.425Z,25.6
2018-05-25T13:09:36.922Z,25.6
2018-05-25T13:10:42.266Z,25.6
2018-05-25T13:11:46.633Z,25.6
2018-05-25T13:12:50.995Z,25.6
2018-05-25T13:13:56.345Z,25.6
2018-05-25T13:15:01.813Z,25.6
2018-05-25T13:16:06.159Z,25.6
2018-05-25T13:17:11.528Z,25.6
2018-05-25T13:18:16.996Z,25.6
2018-05-25T13:19:21.410Z,25.6
2018-05-25T13:20:26.681Z,25.6
2018-05-25T13:21:32.147Z,25.6
2018-05-25T13:22:36.511Z,25.6
2018-05-25T13:23:41.974Z,25.6
2018-05-25T13:24:46.243Z,25.6
2018-05-25T13:25:50.605Z,25.6
2018-05-25T13:26:55.868Z,25.7
2018-05-25T13:28:01.134Z,25.7
2018-05-25T13:29:06.310Z,25.7
2018-05-25T13:30:10.568Z,25.6
2018-05-25T13:31:14.882Z,25.6
2018-05-25T13:32:20.307Z,25.7
2018-05-25T13:33:25.765Z,25.7
2018-05-25T13:34:30.111Z,25.7
2018-05-25T13:35:35.571Z,25.7
2018-05-25T13:36:40.904Z,25.7
2018-05-25T13:37:45.236Z,25.7
2018-05-25T13:38:50.709Z,25.7
2018-05-25T13:39:55.977Z,25.7
2018-05-25T13:41:00.449Z,25.7
2018-05-25T13:42:05.789Z,25.7
2018-05-25T13:43:11.190Z,25.7
2018-05-25T13:44:15.531Z,25.7
2018-05-25T13:45:19.996Z,25.7
2018-05-25T13:46:25.477Z,25.7
2018-05-25T13:47:29.836Z,25.7
2018-05-25T13:48:35.093Z,25.7
2018-05-25T13:49:40.362Z,25.7
2018-05-25T13:50:45.728Z,25.8
2018-05-25T13:51:50.091Z,25.7
2018-05-25T13:52:55.435Z,25.8
2018-05-25T13:54:00.903Z,25.8
2018-05-25T13:55:05.472Z,25.8
2018-05-25T13:56:10.812Z,25.8
2018-05-25T13:57:16.158Z,25.8
2018-05-25T13:58:20.626Z,25.8
2018-05-25T13:59:28.901Z,25.8
2018-05-25T14:00:34.234Z,25.8
2018-05-25T14:01:38.600Z,25.8
2018-05-25T14:02:42.857Z,25.8
2018-05-25T14:03:48.121Z,25.8
2018-05-25T14:04:53.382Z,25.8
2018-05-25T14:05:58.758Z,25.8
2018-05-25T14:07:03.019Z,25.8
2018-05-25T14:08:07.283Z,25.8
2018-05-25T14:09:12.550Z,25.8
2018-05-25T14:10:17.817Z,25.8
2018-05-25T14:11:22.129Z,25.8
2018-05-25T14:12:26.403Z,25.8
2018-05-25T14:13:31.769Z,25.8
2018-05-25T14:14:37.138Z,25.8
2018-05-25T14:15:41.396Z,25.8
2018-05-25T14:16:45.663Z,25.8
2018-05-25T14:17:50.918Z,25.8
2018-05-25T14:18:56.186Z,25.8
2018-05-25T14:20:01.449Z,25.8
2018-05-25T14:21:05.809Z,25.8
2018-05-25T14:22:11.180Z,25.8
2018-05-25T14:23:16.541Z,25.8
2018-05-25T14:24:20.958Z,25.8
2018-05-25T14:25:25.273Z,25.8
2018-05-25T14:26:49.350Z,25.8
2018-05-25T14:27:54.312Z,25.8
2018-05-25T14:28:58.658Z,25.8
2018-05-25T14:30:03.006Z,25.8
2018-05-25T14:31:07.576Z,25.8
2018-05-25T14:32:12.044Z,25.8
2018-05-25T14:33:17.386Z,25.8
2018-05-25T14:34:22.737Z,25.8